sensor_id;sensor_type;location;lat;lon;timestamp;P1;durP1;ratioP1;P2;durP2;ratioP2
80586;SDS011;69943;20.850;106.728;2023-11-22T00:02:24;16.20;;;10.90;;
80586;SDS011;69943;20.850;106.728;2023-11-22T00:05:00;16.70;;;11.80;;
80586;SDS011;69943;20.850;106.728;2023-11-22T00:07:34;16.30;;;10.50;;
80586;SDS011;69943;20.850;106.728;2023-11-22T00:10:06;18.60;;;10.30;;
80586;SDS011;69943;20.850;106.728;2023-11-22T00:12:39;20.70;;;11.50;;
80586;SDS011;69943;20.850;106.728;2023-11-22T00:15:11;20.70;;;11.80;;
80586;SDS011;69943;20.850;106.728;2023-11-22T00:17:49;15.50;;;10.70;;
80586;SDS011;69943;20.850;106.728;2023-11-22T00:20:21;21.70;;;10.60;;
80586;SDS011;69943;20.850;106.728;2023-11-22T00:22:53;18.00;;;11.00;;
80586;SDS011;69943;20.850;106.728;2023-11-22T00:25:25;19.80;;;11.40;;
80586;SDS011;69943;20.850;106.728;2023-11-22T00:27:57;16.00;;;10.60;;
80586;SDS011;69943;20.850;106.728;2023-11-22T00:30:30;18.60;;;10.10;;
80586;SDS011;69943;20.850;106.728;2023-11-22T00:33:02;16.60;;;10.30;;
80586;SDS011;69943;20.850;106.728;2023-11-22T00:35:35;24.40;;;10.80;;
80586;SDS011;69943;20.850;106.728;2023-11-22T00:38:08;18.50;;;11.60;;
80586;SDS011;69943;20.850;106.728;2023-11-22T00:40:40;19.70;;;10.80;;
80586;SDS011;69943;20.850;106.728;2023-11-22T00:43:13;18.70;;;10.60;;
80586;SDS011;69943;20.850;106.728;2023-11-22T00:45:45;19.40;;;11.80;;
80586;SDS011;69943;20.850;106.728;2023-11-22T00:48:17;20.30;;;11.90;;
80586;SDS011;69943;20.850;106.728;2023-11-22T00:50:49;20.50;;;10.30;;
80586;SDS011;69943;20.850;106.728;2023-11-22T00:53:22;15.80;;;10.20;;
80586;SDS011;69943;20.850;106.728;2023-11-22T00:55:54;20.80;;;10.80;;
80586;SDS011;69943;20.850;106.728;2023-11-22T00:58:26;18.80;;;10.70;;
80586;SDS011;69943;20.850;106.728;2023-11-22T01:00:58;18.40;;;10.30;;
80586;SDS011;69943;20.850;106.728;2023-11-22T01:03:31;23.00;;;10.60;;
80586;SDS011;69943;20.850;106.728;2023-11-22T01:06:03;18.10;;;10.50;;
80586;SDS011;69943;20.850;106.728;2023-11-22T01:08:37;20.60;;;9.90;;
80586;SDS011;69943;20.850;106.728;2023-11-22T01:11:09;20.00;;;11.00;;
80586;SDS011;69943;20.850;106.728;2023-11-22T01:13:41;18.70;;;9.80;;
80586;SDS011;69943;20.850;106.728;2023-11-22T01:16:14;19.70;;;10.90;;
80586;SDS011;69943;20.850;106.728;2023-11-22T01:18:46;16.30;;;10.00;;
80586;SDS011;69943;20.850;106.728;2023-11-22T01:21:19;14.50;;;9.80;;
80586;SDS011;69943;20.850;106.728;2023-11-22T01:23:51;16.30;;;10.50;;
80586;SDS011;69943;20.850;106.728;2023-11-22T01:26:23;20.10;;;10.40;;
80586;SDS011;69943;20.850;106.728;2023-11-22T01:28:56;21.30;;;9.40;;
80586;SDS011;69943;20.850;106.728;2023-11-22T01:31:29;17.60;;;9.70;;
80586;SDS011;69943;20.850;106.728;2023-11-22T01:34:03;16.30;;;9.70;;
80586;SDS011;69943;20.850;106.728;2023-11-22T01:36:35;17.40;;;10.60;;
80586;SDS011;69943;20.850;106.728;2023-11-22T01:39:10;17.70;;;10.10;;
80586;SDS011;69943;20.850;106.728;2023-11-22T01:41:46;18.70;;;9.40;;
80586;SDS011;69943;20.850;106.728;2023-11-22T01:44:20;15.30;;;10.10;;
80586;SDS011;69943;20.850;106.728;2023-11-22T01:46:53;19.10;;;10.40;;
80586;SDS011;69943;20.850;106.728;2023-11-22T01:49:26;18.30;;;9.40;;
80586;SDS011;69943;20.850;106.728;2023-11-22T01:51:59;16.00;;;9.60;;
80586;SDS011;69943;20.850;106.728;2023-11-22T01:54:32;19.50;;;9.00;;
80586;SDS011;69943;20.850;106.728;2023-11-22T01:57:06;20.70;;;10.40;;
80586;SDS011;69943;20.850;106.728;2023-11-22T01:59:39;21.40;;;9.80;;
80586;SDS011;69943;20.850;106.728;2023-11-22T02:02:12;16.30;;;9.10;;
80586;SDS011;69943;20.850;106.728;2023-11-22T02:04:44;17.20;;;9.40;;
80586;SDS011;69943;20.850;106.728;2023-11-22T02:07:20;15.50;;;9.80;;
80586;SDS011;69943;20.850;106.728;2023-11-22T02:09:52;20.50;;;9.50;;
80586;SDS011;69943;20.850;106.728;2023-11-22T02:12:24;17.70;;;9.30;;
80586;SDS011;69943;20.850;106.728;2023-11-22T02:14:56;14.60;;;8.30;;
80586;SDS011;69943;20.850;106.728;2023-11-22T02:17:29;15.60;;;9.10;;
80586;SDS011;69943;20.850;106.728;2023-11-22T02:20:01;18.20;;;9.40;;
80586;SDS011;69943;20.850;106.728;2023-11-22T02:22:44;19.10;;;9.80;;
80586;SDS011;69943;20.850;106.728;2023-11-22T02:25:16;18.90;;;9.40;;
80586;SDS011;69943;20.850;106.728;2023-11-22T02:27:49;19.60;;;9.00;;
80586;SDS011;69943;20.850;106.728;2023-11-22T02:30:22;16.50;;;9.20;;
80586;SDS011;69943;20.850;106.728;2023-11-22T02:32:55;20.30;;;9.00;;
80586;SDS011;69943;20.850;106.728;2023-11-22T02:35:27;14.50;;;8.60;;
80586;SDS011;69943;20.850;106.728;2023-11-22T02:38:00;19.40;;;8.90;;
80586;SDS011;69943;20.850;106.728;2023-11-22T02:40:40;15.90;;;8.60;;
80586;SDS011;69943;20.850;106.728;2023-11-22T02:43:13;19.30;;;9.50;;
80586;SDS011;69943;20.850;106.728;2023-11-22T02:45:45;23.10;;;9.50;;
80586;SDS011;69943;20.850;106.728;2023-11-22T02:48:18;21.50;;;9.40;;
80586;SDS011;69943;20.850;106.728;2023-11-22T02:50:50;16.60;;;9.30;;
80586;SDS011;69943;20.850;106.728;2023-11-22T02:53:25;19.80;;;9.00;;
80586;SDS011;69943;20.850;106.728;2023-11-22T02:56:01;17.50;;;9.50;;
80586;SDS011;69943;20.850;106.728;2023-11-22T02:58:33;16.40;;;9.40;;
80586;SDS011;69943;20.850;106.728;2023-11-22T03:01:06;16.10;;;9.10;;
80586;SDS011;69943;20.850;106.728;2023-11-22T03:03:38;18.90;;;9.90;;
80586;SDS011;69943;20.850;106.728;2023-11-22T03:06:11;16.80;;;9.10;;
80586;SDS011;69943;20.850;106.728;2023-11-22T03:08:43;15.80;;;8.80;;
80586;SDS011;69943;20.850;106.728;2023-11-22T03:11:15;14.90;;;8.80;;
80586;SDS011;69943;20.850;106.728;2023-11-22T03:13:50;22.20;;;10.00;;
80586;SDS011;69943;20.850;106.728;2023-11-22T03:16:22;16.90;;;8.60;;
80586;SDS011;69943;20.850;106.728;2023-11-22T03:18:59;18.90;;;8.80;;
80586;SDS011;69943;20.850;106.728;2023-11-22T03:21:33;17.20;;;9.70;;
80586;SDS011;69943;20.850;106.728;2023-11-22T03:24:09;17.80;;;9.00;;
80586;SDS011;69943;20.850;106.728;2023-11-22T03:26:47;17.60;;;9.20;;
80586;SDS011;69943;20.850;106.728;2023-11-22T03:29:20;24.90;;;9.30;;
80586;SDS011;69943;20.850;106.728;2023-11-22T03:32:06;18.20;;;9.50;;
80586;SDS011;69943;20.850;106.728;2023-11-22T03:34:39;18.70;;;10.00;;
80586;SDS011;69943;20.850;106.728;2023-11-22T03:37:18;16.40;;;8.90;;
80586;SDS011;69943;20.850;106.728;2023-11-22T03:39:50;24.50;;;10.10;;
80586;SDS011;69943;20.850;106.728;2023-11-22T03:42:22;22.80;;;8.70;;
80586;SDS011;69943;20.850;106.728;2023-11-22T03:44:57;20.30;;;8.80;;
80586;SDS011;69943;20.850;106.728;2023-11-22T03:47:30;22.30;;;10.10;;
80586;SDS011;69943;20.850;106.728;2023-11-22T03:50:05;20.30;;;8.60;;
80586;SDS011;69943;20.850;106.728;2023-11-22T03:52:37;17.80;;;9.20;;
80586;SDS011;69943;20.850;106.728;2023-11-22T03:55:10;16.60;;;9.30;;
80586;SDS011;69943;20.850;106.728;2023-11-22T03:57:42;16.30;;;8.80;;
80586;SDS011;69943;20.850;106.728;2023-11-22T04:00:15;21.20;;;8.80;;
80586;SDS011;69943;20.850;106.728;2023-11-22T04:02:48;20.30;;;8.40;;
80586;SDS011;69943;20.850;106.728;2023-11-22T04:05:20;16.10;;;9.40;;
80586;SDS011;69943;20.850;106.728;2023-11-22T04:07:53;23.60;;;9.60;;
80586;SDS011;69943;20.850;106.728;2023-11-22T04:10:25;16.20;;;8.30;;
80586;SDS011;69943;20.850;106.728;2023-11-22T04:12:58;16.30;;;8.50;;
80586;SDS011;69943;20.850;106.728;2023-11-22T04:15:30;16.30;;;8.40;;
80586;SDS011;69943;20.850;106.728;2023-11-22T04:18:05;17.10;;;8.30;;
80586;SDS011;69943;20.850;106.728;2023-11-22T04:20:38;12.30;;;8.30;;
80586;SDS011;69943;20.850;106.728;2023-11-22T04:23:10;12.30;;;8.10;;
80586;SDS011;69943;20.850;106.728;2023-11-22T04:25:44;14.90;;;7.90;;
80586;SDS011;69943;20.850;106.728;2023-11-22T04:28:17;15.00;;;7.50;;
80586;SDS011;69943;20.850;106.728;2023-11-22T04:30:49;12.10;;;8.80;;
80586;SDS011;69943;20.850;106.728;2023-11-22T04:33:23;18.30;;;9.00;;
80586;SDS011;69943;20.850;106.728;2023-11-22T04:35:55;13.30;;;7.90;;
80586;SDS011;69943;20.850;106.728;2023-11-22T04:38:28;14.90;;;8.00;;
80586;SDS011;69943;20.850;106.728;2023-11-22T04:41:00;13.90;;;7.50;;
80586;SDS011;69943;20.850;106.728;2023-11-22T04:43:33;11.70;;;8.00;;
80586;SDS011;69943;20.850;106.728;2023-11-22T04:46:06;14.60;;;7.80;;
80586;SDS011;69943;20.850;106.728;2023-11-22T04:48:39;11.70;;;7.40;;
80586;SDS011;69943;20.850;106.728;2023-11-22T04:51:15;10.60;;;7.10;;
80586;SDS011;69943;20.850;106.728;2023-11-22T04:53:48;12.30;;;7.60;;
80586;SDS011;69943;20.850;106.728;2023-11-22T04:56:20;13.70;;;7.90;;
80586;SDS011;69943;20.850;106.728;2023-11-22T04:58:52;12.50;;;7.70;;
80586;SDS011;69943;20.850;106.728;2023-11-22T05:01:29;16.80;;;7.80;;
80586;SDS011;69943;20.850;106.728;2023-11-22T05:04:03;15.80;;;7.40;;
80586;SDS011;69943;20.850;106.728;2023-11-22T05:06:36;12.40;;;8.20;;
80586;SDS011;69943;20.850;106.728;2023-11-22T05:09:08;8.60;;;7.10;;
80586;SDS011;69943;20.850;106.728;2023-11-22T05:11:41;12.60;;;7.80;;
80586;SDS011;69943;20.850;106.728;2023-11-22T05:14:15;13.10;;;7.60;;
80586;SDS011;69943;20.850;106.728;2023-11-22T05:16:47;10.30;;;7.30;;
80586;SDS011;69943;20.850;106.728;2023-11-22T05:19:20;14.30;;;7.80;;
80586;SDS011;69943;20.850;106.728;2023-11-22T05:21:52;16.60;;;8.40;;
80586;SDS011;69943;20.850;106.728;2023-11-22T05:24:24;11.40;;;7.30;;
80586;SDS011;69943;20.850;106.728;2023-11-22T05:26:57;17.10;;;8.70;;
80586;SDS011;69943;20.850;106.728;2023-11-22T05:29:29;16.30;;;7.80;;
80586;SDS011;69943;20.850;106.728;2023-11-22T05:32:02;12.50;;;7.20;;
80586;SDS011;69943;20.850;106.728;2023-11-22T05:34:35;15.90;;;7.30;;
80586;SDS011;69943;20.850;106.728;2023-11-22T05:37:07;12.80;;;7.10;;
80586;SDS011;69943;20.850;106.728;2023-11-22T05:39:40;11.20;;;6.90;;
80586;SDS011;69943;20.850;106.728;2023-11-22T05:42:12;12.30;;;7.30;;
80586;SDS011;69943;20.850;106.728;2023-11-22T05:44:44;13.20;;;7.30;;
80586;SDS011;69943;20.850;106.728;2023-11-22T05:47:17;11.50;;;7.20;;
80586;SDS011;69943;20.850;106.728;2023-11-22T05:49:49;11.40;;;6.90;;
80586;SDS011;69943;20.850;106.728;2023-11-22T05:52:22;10.10;;;7.10;;
80586;SDS011;69943;20.850;106.728;2023-11-22T05:54:55;14.10;;;7.80;;
80586;SDS011;69943;20.850;106.728;2023-11-22T05:57:27;8.30;;;6.60;;
80586;SDS011;69943;20.850;106.728;2023-11-22T05:59:59;14.80;;;7.60;;
